• Join FlightAware (Why Join?)
  • Login
  • US Flag 
09:35AM EST


 

Airport Tracker/Info


-or-


 

Live Flight TrackerFlight Track Log ✈ PDT4129 ✈ 22-Jan-2014 ✈ KPGV - KCLT

Flight Track Log - Related Links

Times and Time Zones

All times are in EST time to prevent confusion due to time zone crossing. See the PDT4129 flight status page for this flight to view local times or setup timezone preferences in your user account.

Time Position Orientation Groundspeed Altitude Reporting Facility
EST Latitude Longitude Course Direction KTS MPH feet Rate Location/Type
08:16AM 35.7219 -77.4775 283° West 261 300 5,000  Level Washington Center
08:17AM 35.7314 -77.5289 283° West 241 277 6,100 1,080 Climbing Washington Center
08:18AM 35.7367 -77.5906 276° West 212 244 7,200 1,020 Climbing Washington Center
08:19AM 35.7442 -77.6494 279° West 192 221 8,200 1,020 Climbing Washington Center
08:20AM 35.7514 -77.7086 279° West 184 212 9,300 900 Climbing Washington Center
08:21AM 35.7564 -77.7753 275° West 179 206 10,100 300 Climbing Washington Center
08:22AM 35.7636 -77.8422 278° West 190 219 10,000 -180 Descending Washington Center
08:23AM 35.7653 -77.8625 276° West 214 246 9,900  Descending Washington Center
08:23AM 35.7728 -77.9114 281° West 202 232 10,000  Climbing Washington Center
08:23AM 35.7703 -77.9217 253° West 219 252 9,900  Descending Washington Center
08:24AM 35.7797 -77.9833 281° West 214 246 10,000  Climbing Washington Center
08:25AM 35.7864 -78.0628 276° West 217 250 10,000  Level Washington Center
08:26AM 35.7889 -78.1347 272° West 221 254 10,100 -120 Climbing Washington Center
08:26AM 35.7867 -78.1500 260° West 223 257 9,900 -120 Descending Washington Center
08:27AM 35.7894 -78.2064 273° West 221 254 10,000  Climbing Washington Center
08:27AM 35.7892 -78.2242 269° West 221 254 9,900  Descending Washington Center
08:28AM 35.7919 -78.2833 273° West 214 246 10,000  Climbing Washington Center
08:28AM 35.7894 -78.2986 259° West 220 253 9,900 -120 Descending Washington Center
08:29AM 35.7919 -78.3731 272° West 221 254 9,900  Level Washington Center
08:30AM 35.7947 -78.4319 273° West 219 252 10,000 60 Climbing Washington Center
08:30AM 35.7922 -78.4522 261° West 223 257 10,000 -120 Level Washington Center
08:31AM 35.7950 -78.5114 273° West 226 260 9,900  Descending Washington Center
08:31AM 35.7925 -78.5292 260° West 224 258 10,000  Climbing Washington Center
08:32AM 35.7975 -78.5831 277° West 226 260 9,900  Descending Washington Center
08:32AM 35.7947 -78.6111 263° West 225 259 10,000 60 Climbing Washington Center
08:33AM 35.7969 -78.6856 272° West 225 259 10,000  Level Washington Center
08:35AM 35.8011 -78.8444 311° West 226 260 10,000  Level Washington Center
08:37AM 35.8008 -78.9264 270° West 227 261 10,000  Level Washington Center
08:38AM 35.8028 -79.0083 272° West 225 259 10,000  Level Washington Center
08:39AM 35.8025 -79.0828 270° West 224 258 10,000  Level Washington Center
08:40AM 35.8064 -79.1700 273° West 223 257 10,000 -120 Level Washington Center
08:52AM 35.8108 -80.1467 211° Southwest 243 280 9,100 -120 Descending Atlanta Center
08:53AM 35.8007 -80.1064 270° West  Level FlightAware Approximate
08:53AM 35.8111 -80.2233 270° West 249 287 9,000  Level Atlanta Center
08:54AM 35.8006 -80.1796 270° West  Level FlightAware Approximate
08:54AM 35.8125 -80.2667 272° West 242 278 9,000  Level Atlanta Center
08:55AM 35.8004 -80.2528 270° West  Level FlightAware Approximate
08:55AM 35.8111 -80.3539 269° West 237 273 9,000  Level Atlanta Center
08:56AM 35.8003 -80.3260 270° West  Level FlightAware Approximate
08:56AM 35.8072 -80.4333 267° West 237 273 9,000  Level Atlanta Center
08:57AM 35.8001 -80.3992 270° West  Level FlightAware Approximate
08:57AM 35.7503 -80.4872 218° Southwest 250 288 9,000  Level Atlanta Center
08:58AM 35.7730 -80.4536 211° Southwest  Level FlightAware Approximate
08:58AM 35.6933 -80.5383 216° Southwest 248 285 9,000  Level Atlanta Center
08:59AM 35.6322 -80.5894 214° Southwest 246 283 9,000  Level Atlanta Center
09:00AM 35.5750 -80.6353 213° Southwest 245 282 9,000  Level Atlanta Center
09:01AM 35.5200 -80.6808 214° Southwest 246 283 9,000  Level Atlanta Center
09:02AM 35.4631 -80.7292 215° Southwest 246 283 9,000  Level Atlanta Center
09:03AM 35.4078 -80.7747 214° Southwest 246 283 9,000  Level Atlanta Center
09:04AM 35.3506 -80.8228 214° Southwest 244 281 9,000  Level Atlanta Center
09:05AM 35.2628 -80.8158 176° South 255 293 9,000  Level Atlanta Center
09:06AM 35.2000 -80.8108 176° South 244 281 9,000 -840 Level Atlanta Center
09:07AM 35.1394 -80.8031 174° South 208 239 7,400 -1,560 Descending Atlanta Center
09:08AM 35.0850 -80.7950 173° South 199 229 5,900 -1,740 Descending Atlanta Center
09:09AM 35.0325 -80.7894 175° South 199 229 4,100 -1,020 Descending Atlanta Center
09:10AM 35.0089 -80.8333 237° Southwest 188 216 4,000 -60 Descending Atlanta Center
09:11AM 35.0083 -80.8969 269° West 192 221 4,000  Level Atlanta Center
09:12AM 35.0547 -80.9206 337° Northwest 177 204 4,000 -600 Level Atlanta Center
09:13AM 35.1050 -80.9286 353° North 164 189 2,800 -960 Descending Atlanta Center
09:14AM 35.1469 -80.9322 356° North 149 171 2,100 -840 Descending Atlanta Center
09:16AM 35.1908 -80.9356 356° North 122 140 1,000 -960 Descending Atlanta Center